sensor_id;sensor_type;location;lat;lon;timestamp;pressure;altitude;pressure_sealevel;temperature;humidity
788;BME280;16074;42.708;23.312;2023-03-16T00:00:08;139067.03;;;3.12;100.00
788;BME280;16074;42.708;23.312;2023-03-16T00:02:40;139045.53;;;3.03;100.00
788;BME280;16074;42.708;23.312;2023-03-16T00:05:09;139040.75;;;3.01;100.00
788;BME280;16074;42.708;23.312;2023-03-16T00:07:38;139032.38;;;2.98;100.00
788;BME280;16074;42.708;23.312;2023-03-16T00:10:11;139039.53;;;3.01;100.00
788;BME280;16074;42.708;23.312;2023-03-16T00:12:39;139034.75;;;2.99;100.00
788;BME280;16074;42.708;23.312;2023-03-16T00:15:10;139041.94;;;3.02;100.00
788;BME280;16074;42.708;23.312;2023-03-16T00:17:38;139045.53;;;3.03;100.00
788;BME280;16074;42.708;23.312;2023-03-16T00:20:08;139025.19;;;2.95;100.00
788;BME280;16074;42.708;23.312;2023-03-16T00:22:36;139007.28;;;2.87;100.00
788;BME280;16074;42.708;23.312;2023-03-16T00:25:06;139022.81;;;2.94;100.00
788;BME280;16074;42.708;23.312;2023-03-16T00:27:35;139007.28;;;2.87;100.00
788;BME280;16074;42.708;23.312;2023-03-16T00:30:04;139016.84;;;2.91;100.00
788;BME280;16074;42.708;23.312;2023-03-16T00:32:34;139007.28;;;2.87;100.00
788;BME280;16074;42.708;23.312;2023-03-16T00:35:04;138984.59;;;2.78;100.00
788;BME280;16074;42.708;23.312;2023-03-16T00:37:36;138981.00;;;2.76;100.00
788;BME280;16074;42.708;23.312;2023-03-16T00:40:07;138975.03;;;2.74;100.00
788;BME280;16074;42.708;23.312;2023-03-16T00:42:38;138987.00;;;2.79;100.00
788;BME280;16074;42.708;23.312;2023-03-16T00:45:08;138975.03;;;2.74;100.00
788;BME280;16074;42.708;23.312;2023-03-16T00:47:37;138964.25;;;2.69;100.00
788;BME280;16074;42.708;23.312;2023-03-16T00:50:06;138966.66;;;2.70;100.00
788;BME280;16074;42.708;23.312;2023-03-16T00:52:34;138952.31;;;2.64;100.00
788;BME280;16074;42.708;23.312;2023-03-16T00:55:03;138935.56;;;2.57;100.00
788;BME280;16074;42.708;23.312;2023-03-16T00:57:31;138934.41;;;2.57;100.00
788;BME280;16074;42.708;23.312;2023-03-16T01:00:01;138941.56;;;2.60;100.00
788;BME280;16074;42.708;23.312;2023-03-16T01:02:38;138923.66;;;2.52;100.00
788;BME280;16074;42.708;23.312;2023-03-16T01:05:08;138911.72;;;2.47;100.00
788;BME280;16074;42.708;23.312;2023-03-16T01:07:37;138897.38;;;2.41;100.00
788;BME280;16074;42.708;23.312;2023-03-16T01:10:07;138884.22;;;2.36;100.00
788;BME280;16074;42.708;23.312;2023-03-16T01:12:35;138873.47;;;2.32;100.00
788;BME280;16074;42.708;23.312;2023-03-16T01:15:06;138878.25;;;2.33;100.00
788;BME280;16074;42.708;23.312;2023-03-16T01:17:35;138873.47;;;2.32;100.00
788;BME280;16074;42.708;23.312;2023-03-16T01:20:04;138892.59;;;2.39;100.00
788;BME280;16074;42.708;23.312;2023-03-16T01:22:37;138892.59;;;2.39;100.00
788;BME280;16074;42.708;23.312;2023-03-16T01:25:09;138884.22;;;2.36;100.00
788;BME280;16074;42.708;23.312;2023-03-16T01:27:40;138865.09;;;2.28;100.00
788;BME280;16074;42.708;23.312;2023-03-16T01:30:11;138853.19;;;2.23;100.00
788;BME280;16074;42.708;23.312;2023-03-16T01:32:40;138865.09;;;2.28;100.00
788;BME280;16074;42.708;23.312;2023-03-16T01:35:12;138846.03;;;2.20;100.00
788;BME280;16074;42.708;23.312;2023-03-16T01:37:40;138854.38;;;2.24;100.00
788;BME280;16074;42.708;23.312;2023-03-16T01:40:14;138856.75;;;2.25;100.00
788;BME280;16074;42.708;23.312;2023-03-16T01:42:47;138832.88;;;2.15;100.00
788;BME280;16074;42.708;23.312;2023-03-16T01:48:25;138820.91;;;2.10;100.00
788;BME280;16074;42.708;23.312;2023-03-16T01:50:54;138825.69;;;2.12;100.00
788;BME280;16074;42.708;23.312;2023-03-16T01:53:24;138824.53;;;2.11;100.00
788;BME280;16074;42.708;23.312;2023-03-16T01:55:52;138823.31;;;2.11;100.00
788;BME280;16074;42.708;23.312;2023-03-16T01:58:22;138828.09;;;2.13;100.00
788;BME280;16074;42.708;23.312;2023-03-16T02:00:51;138816.16;;;2.08;100.00
788;BME280;16074;42.708;23.312;2023-03-16T02:03:21;138813.75;;;2.07;100.00
788;BME280;16074;42.708;23.312;2023-03-16T02:06:06;138795.88;;;1.99;100.00
788;BME280;16074;42.708;23.312;2023-03-16T02:08:41;138801.81;;;2.02;100.00
788;BME280;16074;42.708;23.312;2023-03-16T02:11:11;138794.63;;;1.99;100.00
788;BME280;16074;42.708;23.312;2023-03-16T02:14:07;138812.59;;;2.06;100.00
788;BME280;16074;42.708;23.312;2023-03-16T02:16:37;138798.25;;;2.00;100.00
788;BME280;16074;42.708;23.312;2023-03-16T02:19:10;138788.69;;;1.96;100.00
788;BME280;16074;42.708;23.312;2023-03-16T02:21:47;138783.91;;;1.94;100.00
788;BME280;16074;42.708;23.312;2023-03-16T02:24:20;138792.31;;;1.98;100.00
788;BME280;16074;42.708;23.312;2023-03-16T02:26:52;138764.81;;;1.86;100.00
788;BME280;16074;42.708;23.312;2023-03-16T02:32:20;138731.38;;;1.72;100.00
788;BME280;16074;42.708;23.312;2023-03-16T02:34:50;138729.00;;;1.71;100.00
788;BME280;16074;42.708;23.312;2023-03-16T02:37:19;138718.25;;;1.67;100.00
788;BME280;16074;42.708;23.312;2023-03-16T02:39:48;138718.25;;;1.67;100.00
788;BME280;16074;42.708;23.312;2023-03-16T02:42:19;138708.72;;;1.63;100.00
788;BME280;16074;42.708;23.312;2023-03-16T02:44:53;138694.38;;;1.57;100.00
788;BME280;16074;42.708;23.312;2023-03-16T02:47:33;138702.75;;;1.60;100.00
788;BME280;16074;42.708;23.312;2023-03-16T02:50:03;138692.00;;;1.56;100.00
788;BME280;16074;42.708;23.312;2023-03-16T02:52:33;138706.31;;;1.62;100.00
788;BME280;16074;42.708;23.312;2023-03-16T02:55:01;138699.16;;;1.59;100.00
788;BME280;16074;42.708;23.312;2023-03-16T02:57:30;138695.59;;;1.57;100.00
788;BME280;16074;42.708;23.312;2023-03-16T03:00:06;138688.44;;;1.54;100.00
788;BME280;16074;42.708;23.312;2023-03-16T03:02:42;138682.44;;;1.52;100.00
788;BME280;16074;42.708;23.312;2023-03-16T03:05:11;138682.44;;;1.52;100.00
788;BME280;16074;42.708;23.312;2023-03-16T03:07:39;138666.94;;;1.45;100.00
788;BME280;16074;42.708;23.312;2023-03-16T03:10:09;138670.50;;;1.47;100.00
788;BME280;16074;42.708;23.312;2023-03-16T03:12:37;138663.34;;;1.44;100.00
788;BME280;16074;42.708;23.312;2023-03-16T03:15:09;138655.00;;;1.40;100.00
788;BME280;16074;42.708;23.312;2023-03-16T03:17:50;138650.25;;;1.38;100.00
788;BME280;16074;42.708;23.312;2023-03-16T03:20:19;138635.91;;;1.32;100.00
788;BME280;16074;42.708;23.312;2023-03-16T03:22:50;138649.06;;;1.38;100.00
788;BME280;16074;42.708;23.312;2023-03-16T03:25:20;138634.75;;;1.32;100.00
788;BME280;16074;42.708;23.312;2023-03-16T03:27:50;138637.13;;;1.33;100.00
788;BME280;16074;42.708;23.312;2023-03-16T03:30:23;138635.91;;;1.32;100.00
788;BME280;16074;42.708;23.312;2023-03-16T03:32:53;138644.28;;;1.36;100.00
788;BME280;16074;42.708;23.312;2023-03-16T03:35:22;138631.16;;;1.30;100.00
788;BME280;16074;42.708;23.312;2023-03-16T03:37:50;138627.59;;;1.29;100.00
788;BME280;16074;42.708;23.312;2023-03-16T03:40:19;138616.81;;;1.24;100.00
788;BME280;16074;42.708;23.312;2023-03-16T03:42:55;138623.97;;;1.27;100.00
788;BME280;16074;42.708;23.312;2023-03-16T03:45:24;138613.25;;;1.23;100.00
788;BME280;16074;42.708;23.312;2023-03-16T03:47:54;138615.66;;;1.24;100.00
788;BME280;16074;42.708;23.312;2023-03-16T03:50:23;138612.03;;;1.22;100.00
788;BME280;16074;42.708;23.312;2023-03-16T03:53:12;138608.50;;;1.21;100.00
788;BME280;16074;42.708;23.312;2023-03-16T03:56:09;138613.25;;;1.23;100.00
788;BME280;16074;42.708;23.312;2023-03-16T03:58:38;138606.09;;;1.20;100.00
788;BME280;16074;42.708;23.312;2023-03-16T04:01:07;138601.34;;;1.18;100.00
788;BME280;16074;42.708;23.312;2023-03-16T04:03:37;138610.88;;;1.22;100.00
788;BME280;16074;42.708;23.312;2023-03-16T04:06:07;138620.44;;;1.26;100.00
788;BME280;16074;42.708;23.312;2023-03-16T04:08:35;138618.03;;;1.25;100.00
788;BME280;16074;42.708;23.312;2023-03-16T04:11:07;138613.25;;;1.23;100.00
788;BME280;16074;42.708;23.312;2023-03-16T04:13:36;138631.16;;;1.30;100.00
788;BME280;16074;42.708;23.312;2023-03-16T04:16:05;138619.22;;;1.25;100.00
788;BME280;16074;42.708;23.312;2023-03-16T04:18:41;138621.59;;;1.26;100.00
788;BME280;16074;42.708;23.312;2023-03-16T04:21:14;138629.97;;;1.30;100.00
788;BME280;16074;42.708;23.312;2023-03-16T04:23:45;138627.59;;;1.29;100.00
788;BME280;16074;42.708;23.312;2023-03-16T04:26:14;138627.59;;;1.29;100.00
788;BME280;16074;42.708;23.312;2023-03-16T04:28:45;138627.59;;;1.29;100.00
788;BME280;16074;42.708;23.312;2023-03-16T04:31:16;138646.69;;;1.37;100.00
788;BME280;16074;42.708;23.312;2023-03-16T04:33:47;138639.53;;;1.34;100.00
788;BME280;16074;42.708;23.312;2023-03-16T04:36:16;138645.47;;;1.36;100.00
788;BME280;16074;42.708;23.312;2023-03-16T04:38:44;138640.69;;;1.34;100.00
788;BME280;16074;42.708;23.312;2023-03-16T04:41:13;138649.06;;;1.38;100.00
788;BME280;16074;42.708;23.312;2023-03-16T04:43:50;138635.91;;;1.32;100.00
788;BME280;16074;42.708;23.312;2023-03-16T04:46:21;138622.81;;;1.27;100.00
788;BME280;16074;42.708;23.312;2023-03-16T04:48:52;138626.38;;;1.28;100.00
788;BME280;16074;42.708;23.312;2023-03-16T04:51:20;138623.97;;;1.27;100.00
788;BME280;16074;42.708;23.312;2023-03-16T04:53:59;138633.53;;;1.31;100.00
788;BME280;16074;42.708;23.312;2023-03-16T04:56:32;138639.53;;;1.34;100.00
788;BME280;16074;42.708;23.312;2023-03-16T04:59:05;138619.22;;;1.25;100.00
788;BME280;16074;42.708;23.312;2023-03-16T05:01:45;138615.66;;;1.24;100.00
788;BME280;16074;42.708;23.312;2023-03-16T05:04:16;138619.22;;;1.25;100.00
788;BME280;16074;42.708;23.312;2023-03-16T05:06:47;138602.50;;;1.18;100.00
788;BME280;16074;42.708;23.312;2023-03-16T05:09:17;138609.66;;;1.21;100.00
788;BME280;16074;42.708;23.312;2023-03-16T05:11:47;138609.66;;;1.21;100.00
788;BME280;16074;42.708;23.312;2023-03-16T05:14:15;138614.44;;;1.23;100.00
788;BME280;16074;42.708;23.312;2023-03-16T05:17:19;138619.22;;;1.25;100.00
788;BME280;16074;42.708;23.312;2023-03-16T05:19:49;138619.22;;;1.25;100.00
788;BME280;16074;42.708;23.312;2023-03-16T05:22:19;138622.81;;;1.27;100.00
788;BME280;16074;42.708;23.312;2023-03-16T05:25:18;138620.44;;;1.26;100.00
788;BME280;16074;42.708;23.312;2023-03-16T05:27:51;138621.59;;;1.26;100.00
788;BME280;16074;42.708;23.312;2023-03-16T05:30:32;138607.28;;;1.20;100.00
788;BME280;16074;42.708;23.312;2023-03-16T05:33:03;138629.97;;;1.30;100.00
788;BME280;16074;42.708;23.312;2023-03-16T05:35:33;138619.22;;;1.25;100.00
788;BME280;16074;42.708;23.312;2023-03-16T05:38:05;138619.22;;;1.25;100.00
788;BME280;16074;42.708;23.312;2023-03-16T05:40:38;138612.03;;;1.22;100.00
788;BME280;16074;42.708;23.312;2023-03-16T05:43:14;138602.50;;;1.18;100.00
788;BME280;16074;42.708;23.312;2023-03-16T05:45:48;138609.66;;;1.21;100.00
788;BME280;16074;42.708;23.312;2023-03-16T05:48:17;138607.28;;;1.20;100.00
788;BME280;16074;42.708;23.312;2023-03-16T05:50:53;138609.66;;;1.21;100.00
788;BME280;16074;42.708;23.312;2023-03-16T05:53:26;138610.88;;;1.22;100.00
788;BME280;16074;42.708;23.312;2023-03-16T05:56:02;138609.66;;;1.21;100.00
788;BME280;16074;42.708;23.312;2023-03-16T05:58:33;138600.13;;;1.17;100.00
788;BME280;16074;42.708;23.312;2023-03-16T06:01:05;138620.44;;;1.26;100.00
788;BME280;16074;42.708;23.312;2023-03-16T06:03:35;138613.25;;;1.23;100.00
788;BME280;16074;42.708;23.312;2023-03-16T06:06:07;138623.97;;;1.27;100.00
788;BME280;16074;42.708;23.312;2023-03-16T06:08:46;138641.91;;;1.35;100.00
788;BME280;16074;42.708;23.312;2023-03-16T06:11:18;138638.31;;;1.33;100.00
788;BME280;16074;42.708;23.312;2023-03-16T06:13:46;138637.13;;;1.33;100.00
788;BME280;16074;42.708;23.312;2023-03-16T06:16:15;138663.34;;;1.44;100.00
788;BME280;16074;42.708;23.312;2023-03-16T06:18:44;138657.41;;;1.41;100.00
788;BME280;16074;42.708;23.312;2023-03-16T06:21:14;138660.97;;;1.43;100.00
788;BME280;16074;42.708;23.312;2023-03-16T06:23:43;138656.22;;;1.41;100.00
788;BME280;16074;42.708;23.312;2023-03-16T06:26:12;138662.19;;;1.43;100.00
788;BME280;16074;42.708;23.312;2023-03-16T06:28:43;138660.97;;;1.43;100.00
788;BME280;16074;42.708;23.312;2023-03-16T06:31:11;138672.91;;;1.48;100.00
788;BME280;16074;42.708;23.312;2023-03-16T06:33:42;138684.84;;;1.53;100.00
788;BME280;16074;42.708;23.312;2023-03-16T06:36:10;138677.66;;;1.50;100.00
788;BME280;16074;42.708;23.312;2023-03-16T06:38:46;138692.00;;;1.56;100.00
788;BME280;16074;42.708;23.312;2023-03-16T06:41:41;138706.31;;;1.62;100.00
788;BME280;16074;42.708;23.312;2023-03-16T06:44:12;138699.16;;;1.59;100.00
788;BME280;16074;42.708;23.312;2023-03-16T06:46:51;138700.38;;;1.59;100.00
788;BME280;16074;42.708;23.312;2023-03-16T06:49:20;138689.59;;;1.55;100.00
788;BME280;16074;42.708;23.312;2023-03-16T06:51:48;138671.72;;;1.47;100.00
788;BME280;16074;42.708;23.312;2023-03-16T06:54:19;138675.28;;;1.49;100.00
788;BME280;16074;42.708;23.312;2023-03-16T06:56:47;138682.44;;;1.52;100.00
788;BME280;16074;42.708;23.312;2023-03-16T06:59:15;138678.88;;;1.50;100.00
788;BME280;16074;42.708;23.312;2023-03-16T07:01:44;138676.50;;;1.49;100.00
788;BME280;16074;42.708;23.312;2023-03-16T07:04:12;138668.13;;;1.46;100.00
788;BME280;16074;42.708;23.312;2023-03-16T07:06:41;138683.66;;;1.52;100.00
788;BME280;16074;42.708;23.312;2023-03-16T07:09:10;138687.22;;;1.54;100.00
788;BME280;16074;42.708;23.312;2023-03-16T07:11:40;138693.22;;;1.56;100.00
788;BME280;16074;42.708;23.312;2023-03-16T07:14:08;138681.28;;;1.51;100.00
788;BME280;16074;42.708;23.312;2023-03-16T07:16:38;138672.91;;;1.48;100.00
788;BME280;16074;42.708;23.312;2023-03-16T07:19:08;138677.66;;;1.50;100.00
788;BME280;16074;42.708;23.312;2023-03-16T07:21:37;138699.16;;;1.59;100.00
788;BME280;16074;42.708;23.312;2023-03-16T07:24:11;138684.84;;;1.53;100.00
788;BME280;16074;42.708;23.312;2023-03-16T07:26:42;138717.09;;;1.66;100.00
788;BME280;16074;42.708;23.312;2023-03-16T07:29:14;138708.72;;;1.63;100.00
788;BME280;16074;42.708;23.312;2023-03-16T07:31:43;138726.59;;;1.70;100.00
788;BME280;16074;42.708;23.312;2023-03-16T07:34:17;138727.81;;;1.71;100.00
788;BME280;16074;42.708;23.312;2023-03-16T07:36:51;138745.69;;;1.78;100.00
788;BME280;16074;42.708;23.312;2023-03-16T07:39:22;138736.16;;;1.74;100.00
788;BME280;16074;42.708;23.312;2023-03-16T07:41:57;138738.53;;;1.75;100.00
788;BME280;16074;42.708;23.312;2023-03-16T07:44:52;138755.25;;;1.82;100.00
788;BME280;16074;42.708;23.312;2023-03-16T07:47:20;138758.84;;;1.84;100.00
788;BME280;16074;42.708;23.312;2023-03-16T07:49:54;138771.97;;;1.89;100.00
788;BME280;16074;42.708;23.312;2023-03-16T07:52:23;138776.75;;;1.91;100.00
788;BME280;16074;42.708;23.312;2023-03-16T07:54:51;138800.63;;;2.01;100.00
788;BME280;16074;42.708;23.312;2023-03-16T07:57:21;138794.63;;;1.99;100.00
788;BME280;16074;42.708;23.312;2023-03-16T07:59:50;138810.19;;;2.05;100.00
788;BME280;16074;42.708;23.312;2023-03-16T08:02:19;138813.75;;;2.07;100.00
788;BME280;16074;42.708;23.312;2023-03-16T08:04:49;138824.53;;;2.11;100.00
788;BME280;16074;42.708;23.312;2023-03-16T08:07:17;138846.03;;;2.20;100.00
788;BME280;16074;42.708;23.312;2023-03-16T08:09:53;138836.47;;;2.16;100.00
788;BME280;16074;42.708;23.312;2023-03-16T08:12:29;138838.88;;;2.17;100.00
788;BME280;16074;42.708;23.312;2023-03-16T08:14:58;138866.31;;;2.29;100.00
788;BME280;16074;42.708;23.312;2023-03-16T08:17:29;138867.47;;;2.29;100.00
788;BME280;16074;42.708;23.312;2023-03-16T08:19:59;138866.31;;;2.29;100.00
788;BME280;16074;42.708;23.312;2023-03-16T08:22:28;138890.22;;;2.38;100.00
788;BME280;16074;42.708;23.312;2023-03-16T08:24:56;138905.72;;;2.45;100.00
788;BME280;16074;42.708;23.312;2023-03-16T08:27:25;138911.72;;;2.47;100.00
788;BME280;16074;42.708;23.312;2023-03-16T08:30:00;138900.94;;;2.43;100.00
788;BME280;16074;42.708;23.312;2023-03-16T08:32:33;138914.09;;;2.48;100.00
788;BME280;16074;42.708;23.312;2023-03-16T08:35:02;138920.06;;;2.51;100.00
788;BME280;16074;42.708;23.312;2023-03-16T08:37:30;138947.53;;;2.62;100.00
788;BME280;16074;42.708;23.312;2023-03-16T08:39:59;138955.91;;;2.66;100.00
788;BME280;16074;42.708;23.312;2023-03-16T08:42:28;138966.66;;;2.70;100.00
788;BME280;16074;42.708;23.312;2023-03-16T08:45:02;138983.38;;;2.77;100.00
788;BME280;16074;42.708;23.312;2023-03-16T08:47:40;139002.50;;;2.85;100.00
788;BME280;16074;42.708;23.312;2023-03-16T08:50:11;139010.84;;;2.89;100.00
788;BME280;16074;42.708;23.312;2023-03-16T08:52:40;139018.03;;;2.92;100.00
788;BME280;16074;42.708;23.312;2023-03-16T08:55:09;139003.69;;;2.86;100.00
788;BME280;16074;42.708;23.312;2023-03-16T08:57:39;138972.66;;;2.73;100.00
788;BME280;16074;42.708;23.312;2023-03-16T09:00:10;139004.91;;;2.86;100.00
788;BME280;16074;42.708;23.312;2023-03-16T09:02:41;139001.28;;;2.85;100.00
788;BME280;16074;42.708;23.312;2023-03-16T09:05:11;139021.63;;;2.93;100.00
788;BME280;16074;42.708;23.312;2023-03-16T09:07:40;139041.94;;;3.02;100.00
788;BME280;16074;42.708;23.312;2023-03-16T09:10:10;139044.31;;;3.03;100.00
788;BME280;16074;42.708;23.312;2023-03-16T09:12:42;139029.97;;;2.97;100.00
788;BME280;16074;42.708;23.312;2023-03-16T09:15:12;139028.81;;;2.96;100.00
788;BME280;16074;42.708;23.312;2023-03-16T09:17:41;139027.59;;;2.96;100.00
788;BME280;16074;42.708;23.312;2023-03-16T09:20:13;139028.81;;;2.96;100.00
788;BME280;16074;42.708;23.312;2023-03-16T09:22:56;139056.28;;;3.08;100.00
788;BME280;16074;42.708;23.312;2023-03-16T09:25:24;139067.03;;;3.12;100.00
788;BME280;16074;42.708;23.312;2023-03-16T09:27:53;139075.41;;;3.16;100.00
788;BME280;16074;42.708;23.312;2023-03-16T09:30:23;139074.19;;;3.15;100.00
788;BME280;16074;42.708;23.312;2023-03-16T09:32:52;139076.59;;;3.16;100.00
788;BME280;16074;42.708;23.312;2023-03-16T09:35:21;139098.13;;;3.25;100.00
788;BME280;16074;42.708;23.312;2023-03-16T09:37:49;139116.06;;;3.33;100.00
788;BME280;16074;42.708;23.312;2023-03-16T09:40:34;139125.66;;;3.37;100.00
788;BME280;16074;42.708;23.312;2023-03-16T09:43:19;139120.84;;;3.35;100.00
788;BME280;16074;42.708;23.312;2023-03-16T09:45:57;139124.41;;;3.36;100.00
788;BME280;16074;42.708;23.312;2023-03-16T09:48:27;139143.56;;;3.44;100.00
788;BME280;16074;42.708;23.312;2023-03-16T09:50:58;139142.34;;;3.44;100.00
788;BME280;16074;42.708;23.312;2023-03-16T09:53:30;139143.56;;;3.44;100.00
788;BME280;16074;42.708;23.312;2023-03-16T09:56:03;139134.00;;;3.40;100.00
788;BME280;16074;42.708;23.312;2023-03-16T09:58:31;139128.03;;;3.38;100.00
788;BME280;16074;42.708;23.312;2023-03-16T10:01:06;139108.91;;;3.30;100.00
788;BME280;16074;42.708;23.312;2023-03-16T10:06:57;139154.31;;;3.48;100.00
788;BME280;16074;42.708;23.312;2023-03-16T10:09:31;139153.13;;;3.48;100.00
788;BME280;16074;42.708;23.312;2023-03-16T10:12:06;139144.72;;;3.45;100.00
788;BME280;16074;42.708;23.312;2023-03-16T10:14:40;139157.91;;;3.50;100.00
788;BME280;16074;42.708;23.312;2023-03-16T10:17:17;139172.28;;;3.56;100.00
788;BME280;16074;42.708;23.312;2023-03-16T10:19:49;139169.88;;;3.55;100.00
788;BME280;16074;42.708;23.312;2023-03-16T10:22:21;139143.56;;;3.44;100.00
788;BME280;16074;42.708;23.312;2023-03-16T10:25:02;139141.16;;;3.43;100.00
788;BME280;16074;42.708;23.312;2023-03-16T10:27:33;139149.53;;;3.47;100.00
788;BME280;16074;42.708;23.312;2023-03-16T10:30:16;139171.06;;;3.55;100.00
788;BME280;16074;42.708;23.312;2023-03-16T10:32:48;139177.06;;;3.58;100.00
788;BME280;16074;42.708;23.312;2023-03-16T10:35:28;139173.44;;;3.56;100.00
788;BME280;16074;42.708;23.312;2023-03-16T10:37:58;139186.63;;;3.62;100.00
788;BME280;16074;42.708;23.312;2023-03-16T10:40:30;139194.97;;;3.65;100.00
788;BME280;16074;42.708;23.312;2023-03-16T10:43:04;139220.06;;;3.76;100.00
788;BME280;16074;42.708;23.312;2023-03-16T10:45:35;139212.91;;;3.73;100.00
788;BME280;16074;42.708;23.312;2023-03-16T10:48:12;139253.59;;;3.90;100.00
788;BME280;16074;42.708;23.312;2023-03-16T10:50:42;139233.25;;;3.81;100.00
788;BME280;16074;42.708;23.312;2023-03-16T10:53:15;139248.78;;;3.88;100.00
788;BME280;16074;42.708;23.312;2023-03-16T10:55:47;139266.78;;;3.95;100.00
788;BME280;16074;42.708;23.312;2023-03-16T10:58:22;139290.66;;;4.05;100.00
788;BME280;16074;42.708;23.312;2023-03-16T11:00:53;139306.25;;;4.12;100.00
788;BME280;16074;42.708;23.312;2023-03-16T11:03:26;139275.13;;;3.99;100.00
788;BME280;16074;42.708;23.312;2023-03-16T11:05:59;139270.34;;;3.97;100.00
788;BME280;16074;42.708;23.312;2023-03-16T11:08:31;139261.97;;;3.93;100.00
788;BME280;16074;42.708;23.312;2023-03-16T11:11:07;139283.47;;;4.02;100.00
788;BME280;16074;42.708;23.312;2023-03-16T11:13:43;139309.81;;;4.13;100.00
788;BME280;16074;42.708;23.312;2023-03-16T11:16:23;139326.56;;;4.20;100.00
788;BME280;16074;42.708;23.312;2023-03-16T11:18:56;139336.16;;;4.24;100.00
788;BME280;16074;42.708;23.312;2023-03-16T11:21:36;139364.88;;;4.36;100.00
788;BME280;16074;42.708;23.312;2023-03-16T11:24:14;139373.22;;;4.40;100.00
788;BME280;16074;42.708;23.312;2023-03-16T11:26:51;139381.63;;;4.43;100.00
788;BME280;16074;42.708;23.312;2023-03-16T11:29:23;139390.00;;;4.47;100.00
788;BME280;16074;42.708;23.312;2023-03-16T11:31:57;139369.66;;;4.38;100.00
788;BME280;16074;42.708;23.312;2023-03-16T11:34:30;139392.38;;;4.48;100.00
788;BME280;16074;42.708;23.312;2023-03-16T11:37:04;139381.63;;;4.43;99.69
788;BME280;16074;42.708;23.312;2023-03-16T11:39:45;139391.22;;;4.47;99.77
788;BME280;16074;42.708;23.312;2023-03-16T11:42:26;139412.72;;;4.56;100.00
788;BME280;16074;42.708;23.312;2023-03-16T11:45:00;139398.41;;;4.50;99.20
788;BME280;16074;42.708;23.312;2023-03-16T11:47:58;139375.63;;;4.41;98.41
788;BME280;16074;42.708;23.312;2023-03-16T11:50:34;139358.88;;;4.34;99.06
788;BME280;16074;42.708;23.312;2023-03-16T11:53:12;139366.06;;;4.37;98.73
788;BME280;16074;42.708;23.312;2023-03-16T11:56:01;139378.03;;;4.42;100.00
788;BME280;16074;42.708;23.312;2023-03-16T11:58:45;139344.50;;;4.28;99.60
788;BME280;16074;42.708;23.312;2023-03-16T12:01:17;139339.72;;;4.26;100.00
788;BME280;16074;42.708;23.312;2023-03-16T12:03:56;139279.91;;;4.01;100.00
788;BME280;16074;42.708;23.312;2023-03-16T12:06:52;139246.41;;;3.87;100.00
788;BME280;16074;42.708;23.312;2023-03-16T12:09:54;139240.44;;;3.84;100.00
788;BME280;16074;42.708;23.312;2023-03-16T12:12:29;139244.00;;;3.86;100.00
788;BME280;16074;42.708;23.312;2023-03-16T12:15:24;139273.91;;;3.98;100.00
788;BME280;16074;42.708;23.312;2023-03-16T12:17:59;139266.78;;;3.95;100.00
788;BME280;16074;42.708;23.312;2023-03-16T12:20:34;139259.59;;;3.92;100.00
788;BME280;16074;42.708;23.312;2023-03-16T12:23:10;139245.22;;;3.86;100.00
788;BME280;16074;42.708;23.312;2023-03-16T12:25:42;139238.06;;;3.83;100.00
788;BME280;16074;42.708;23.312;2023-03-16T12:28:20;139258.38;;;3.92;100.00
788;BME280;16074;42.708;23.312;2023-03-16T12:30:56;139245.22;;;3.86;100.00
788;BME280;16074;42.708;23.312;2023-03-16T12:33:38;139252.41;;;3.89;100.00
788;BME280;16074;42.708;23.312;2023-03-16T12:36:30;139234.44;;;3.82;100.00
788;BME280;16074;42.708;23.312;2023-03-16T12:39:06;139247.63;;;3.87;100.00
788;BME280;16074;42.708;23.312;2023-03-16T12:41:41;139241.63;;;3.85;100.00
788;BME280;16074;42.708;23.312;2023-03-16T12:44:20;139234.44;;;3.82;100.00
788;BME280;16074;42.708;23.312;2023-03-16T12:46:54;139184.22;;;3.61;100.00
788;BME280;16074;42.708;23.312;2023-03-16T12:49:25;139190.19;;;3.63;100.00
788;BME280;16074;42.708;23.312;2023-03-16T12:51:59;139175.84;;;3.57;100.00
788;BME280;16074;42.708;23.312;2023-03-16T12:54:29;139177.06;;;3.58;100.00
788;BME280;16074;42.708;23.312;2023-03-16T12:57:02;139154.31;;;3.48;100.00
788;BME280;16074;42.708;23.312;2023-03-16T12:59:37;139110.06;;;3.30;100.00
788;BME280;16074;42.708;23.312;2023-03-16T13:02:13;139106.50;;;3.29;100.00
788;BME280;16074;42.708;23.312;2023-03-16T13:04:44;139086.16;;;3.20;100.00
788;BME280;16074;42.708;23.312;2023-03-16T13:07:19;139071.81;;;3.14;100.00
788;BME280;16074;42.708;23.312;2023-03-16T13:09:53;139092.16;;;3.23;100.00
788;BME280;16074;42.708;23.312;2023-03-16T13:12:26;139096.94;;;3.25;100.00
788;BME280;16074;42.708;23.312;2023-03-16T13:14:54;139065.84;;;3.12;100.00
788;BME280;16074;42.708;23.312;2023-03-16T13:17:25;139083.75;;;3.19;100.00
788;BME280;16074;42.708;23.312;2023-03-16T13:20:04;139092.16;;;3.23;100.00
788;BME280;16074;42.708;23.312;2023-03-16T13:22:43;139100.50;;;3.26;100.00
788;BME280;16074;42.708;23.312;2023-03-16T13:25:21;139099.34;;;3.26;100.00
788;BME280;16074;42.708;23.312;2023-03-16T13:27:53;139102.91;;;3.27;100.00
788;BME280;16074;42.708;23.312;2023-03-16T13:30:24;139119.63;;;3.34;100.00
788;BME280;16074;42.708;23.312;2023-03-16T13:32:56;139128.03;;;3.38;100.00
788;BME280;16074;42.708;23.312;2023-03-16T13:35:29;139119.63;;;3.34;100.00
788;BME280;16074;42.708;23.312;2023-03-16T13:38:02;139111.28;;;3.31;100.00